Sunday, November 19, 2017, 2:45 AM GMT
Back to Local

CYSC, Sherbrooke, Que.

Location: , , Canada Lat: 45.4
Local Time: 2:45 AM GMT ( 2:45 GMT) Lon: -71.883
Time Zone: GMT Elev: 557 ft

Show me the last for .
Show Decoded

2017-11-19 02:37 METAR CYSC 190237Z AUTO 07003KT 9SM OVC026 01/M04 A2947 RMK SLP993 =
2017-11-19 02:25 METAR CYSC 190225Z AUTO 09003KT 9SM -RA OVC028 01/M03 A2948 RMK SLP995 =
2017-11-19 02:11 METAR CYSC 190211Z AUTO 13007G15KT 9SM OVC030 01/M04 A2949 RMK SLP998 =
2017-11-19 02:00 METAR CYSC 190200Z AUTO 14011KT 9SM -RA OVC032 01/M04 A2949 RMK SLP000 =
2017-11-19 01:51 METAR CYSC 190151Z AUTO 13010KT 9SM -RA OVC034 02/M05 A2950 RMK SLP002 =
2017-11-19 01:39 METAR CYSC 190139Z AUTO 12010KT 9SM BKN034 OVC041 02/M06 A2950 RMK SLP004 =
2017-11-19 01:25 METAR CYSC 190125Z AUTO 13010KT 9SM -RA OVC040 02/M06 A2951 RMK SLP007 =
2017-11-19 01:00 METAR CYSC 190100Z AUTO 12006KT 9SM OVC042 02/M06 A2952 RMK SLP011 =
2017-11-19 00:00 METAR CYSC 190000Z AUTO 11006KT 9SM SCT042 BKN049 OVC070 02/M07 A2956 RMK SLP022
                 =
2017-11-18 23:00 METAR CYSC 182300Z AUTO 11007KT 9SM OVC070 02/M06 A2956 RMK SLP025 =
2017-11-18 22:00 METAR CYSC 182200Z AUTO 06002KT 9SM OVC080 00/M03 A2957 RMK SLP029 =
2017-11-18 21:00 METAR CYSC 182100Z AUTO 10003KT 9SM OVC075 00/M04 A2957 RMK SLP029 =
2017-11-18 20:00 METAR CYSC 182000Z AUTO 06004KT 9SM OVC095 01/M04 A2961 RMK PRESFR SLP040 =
2017-11-18 19:00 METAR CYSC 181900Z AUTO 07006KT 9SM BKN110 BKN250 M00/M04 A2964 RMK PRESFR
                 SLP050 =
2017-11-18 18:00 METAR CYSC 181800Z AUTO 36003KT 310V050 9SM SCT120 M01/M05 A2969 RMK SLP069 =
2017-11-18 17:00 METAR CYSC 181700Z AUTO 03002KT 9SM CLR M01/M06 A2971 RMK SLP074 =
2017-11-18 16:00 METAR CYSC 181600Z AUTO 10003KT 070V140 9SM SCT130 SCT250 M02/M07 A2977 RMK
                 SLP097 =
2017-11-18 15:00 METAR CYSC 181500Z AUTO 07005KT 9SM FEW150 M04/M07 A2981 RMK SLP110 =
2017-11-18 14:00 METAR CYSC 181400Z AUTO 08006KT 9SM FEW240 M06/M09 A2985 RMK SLP125 =
2017-11-18 13:00 METAR CYSC 181300Z AUTO 10004KT 9SM SCT110 BKN140 BKN240 M08/M09 A2989 RMK
                 SLP140 =
2017-11-18 12:00 METAR CYSC 181200Z AUTO VRB03KT 9SM FEW100 M09/M11 A2992 RMK SLP149 =
2017-11-18 11:00 METAR CYSC 181100Z AUTO 08005KT 9SM CLR M10/M11 A2993 RMK PRESFR SLP153 =
2017-11-18 10:00 METAR CYSC 181000Z AUTO 13002KT 9SM CLR M10/M11 A2997 RMK SLP165 =
2017-11-18 09:00 METAR CYSC 180900Z AUTO 00000KT 9SM CLR M10/M11 A2995 RMK SLP159 =
2017-11-18 08:00 METAR CYSC 180800Z AUTO 19003KT 180V280 9SM CLR M09/M10 A2995 RMK SLP160 =
2017-11-18 07:00 METAR CYSC 180700Z AUTO 22005KT 9SM CLR M08/M10 A2996 RMK SLP162 =
2017-11-18 06:00 METAR CYSC 180600Z AUTO 22006KT 9SM CLR M08/M10 A2996 RMK SLP161 =
2017-11-18 05:00 METAR CYSC 180500Z AUTO 26006KT 9SM CLR M08/M10 A2996 RMK SLP162 =
2017-11-18 04:00 METAR CYSC 180400Z AUTO 28009KT 9SM CLR M08/M10 A2997 RMK SLP164 =
2017-11-18 03:00 METAR CYSC 180300Z AUTO 26006KT 9SM CLR M07/M09 A3000 RMK SLP173 =

Support USWX by starting your Amazon purchase here.